createdAt,value
2018-06-03T00:00:42.808Z,972.37
2018-06-03T00:01:42.857Z,972.36
2018-06-03T00:02:42.927Z,972.34
2018-06-03T00:03:42.981Z,972.33
2018-06-03T00:04:43.033Z,972.35
2018-06-03T00:05:43.060Z,972.31
2018-06-03T00:06:43.112Z,972.30
2018-06-03T00:07:43.163Z,972.35
2018-06-03T00:08:43.209Z,972.31
2018-06-03T00:09:43.291Z,972.32
2018-06-03T00:10:43.309Z,972.30
2018-06-03T00:11:43.364Z,972.32
2018-06-03T00:12:43.417Z,972.28
2018-06-03T00:13:43.462Z,972.28
2018-06-03T00:14:43.534Z,972.30
2018-06-03T00:15:43.625Z,972.29
2018-06-03T00:16:43.623Z,972.30
2018-06-03T00:17:43.662Z,972.28
2018-06-03T00:18:43.710Z,972.33
2018-06-03T00:19:43.787Z,972.36
2018-06-03T00:20:43.835Z,972.30
2018-06-03T00:21:43.863Z,972.35
2018-06-03T00:22:43.914Z,972.36
2018-06-03T00:23:43.962Z,972.36
2018-06-03T00:24:44.012Z,972.39
2018-06-03T00:25:44.086Z,972.39
2018-06-03T00:26:44.118Z,972.33
2018-06-03T00:27:44.163Z,972.38
2018-06-03T00:28:44.215Z,972.36
2018-06-03T00:29:44.264Z,972.32
2018-06-03T00:30:44.338Z,972.35
2018-06-03T00:31:44.385Z,972.36
2018-06-03T00:32:44.415Z,972.33
2018-06-03T00:33:44.470Z,972.32
2018-06-03T00:34:44.512Z,972.32
2018-06-03T00:35:44.565Z,972.28
2018-06-03T00:36:44.643Z,972.24
2018-06-03T00:37:44.665Z,972.26
2018-06-03T00:38:44.712Z,972.24
2018-06-03T00:39:44.763Z,972.24
2018-06-03T00:40:44.816Z,972.23
2018-06-03T00:41:44.886Z,972.25
2018-06-03T00:42:44.913Z,972.22
2018-06-03T00:43:44.965Z,972.17
2018-06-03T00:44:45.012Z,972.15
2018-06-03T00:45:45.066Z,972.14
2018-06-03T00:46:45.146Z,972.14
2018-06-03T00:47:45.166Z,972.10
2018-06-03T00:48:45.213Z,972.08
2018-06-03T00:49:45.262Z,972.11
2018-06-03T00:50:45.312Z,972.09
2018-06-03T00:51:45.405Z,972.11
2018-06-03T00:52:45.417Z,972.13
2018-06-03T00:53:45.463Z,972.09
2018-06-03T00:54:45.512Z,972.09
2018-06-03T00:55:45.561Z,972.08
2018-06-03T00:56:45.643Z,972.04
2018-06-03T00:57:45.685Z,972.07
2018-06-03T00:58:45.715Z,972.08
2018-06-03T00:59:45.761Z,972.05
2018-06-03T01:00:45.810Z,972.03
2018-06-03T01:01:45.861Z,972.01
2018-06-03T01:02:45.937Z,972.03
2018-06-03T01:03:45.964Z,972.01
2018-06-03T01:04:46.011Z,972.02
2018-06-03T01:05:46.061Z,972.02
2018-06-03T01:06:52.932Z,972.04
2018-06-03T01:07:46.184Z,972.05
2018-06-03T01:08:46.210Z,972.01
2018-06-03T01:09:46.260Z,972.03
2018-06-03T01:10:46.311Z,972.01
2018-06-03T01:11:46.364Z,972.00
2018-06-03T01:12:46.441Z,972.01
2018-06-03T01:13:46.467Z,972.01
2018-06-03T01:14:46.513Z,972.01
2018-06-03T01:15:46.576Z,972.02
2018-06-03T01:16:46.609Z,971.99
2018-06-03T01:17:46.689Z,971.99
2018-06-03T01:18:46.708Z,972.01
2018-06-03T01:19:46.757Z,972.01
2018-06-03T01:20:46.806Z,971.99
2018-06-03T01:21:46.858Z,972.00
2018-06-03T01:22:46.930Z,971.95
2018-06-03T01:23:46.979Z,971.97
2018-06-03T01:24:47.064Z,971.94
2018-06-03T01:25:47.059Z,971.99
2018-06-03T01:26:47.106Z,971.99
2018-06-03T01:27:47.157Z,971.95
2018-06-03T01:28:47.236Z,971.91
2018-06-03T01:29:47.256Z,971.90
2018-06-03T01:30:47.310Z,971.92
2018-06-03T01:31:47.355Z,971.88
2018-06-03T01:32:47.408Z,971.87
2018-06-03T01:33:47.498Z,971.86
2018-06-03T01:34:47.504Z,971.83
2018-06-03T01:35:47.556Z,971.83
2018-06-03T01:36:47.606Z,971.83
2018-06-03T01:37:47.656Z,971.80
2018-06-03T01:38:47.746Z,971.81
2018-06-03T01:39:47.755Z,971.74
2018-06-03T01:40:47.805Z,971.75
2018-06-03T01:41:47.853Z,971.77
2018-06-03T01:42:47.902Z,971.74
2018-06-03T01:43:47.983Z,971.74
2018-06-03T01:44:48.000Z,971.76
2018-06-03T01:45:48.054Z,971.79
2018-06-03T01:46:48.102Z,971.79
2018-06-03T01:47:48.150Z,971.79
2018-06-03T01:48:48.233Z,971.77
2018-06-03T01:49:48.252Z,971.74
2018-06-03T01:50:48.300Z,971.72
2018-06-03T01:51:48.352Z,971.73
2018-06-03T01:52:48.400Z,971.77
2018-06-03T01:53:48.475Z,971.74
2018-06-03T01:54:48.501Z,971.73
2018-06-03T01:55:48.549Z,971.73
2018-06-03T01:56:48.599Z,971.74
2018-06-03T01:57:48.651Z,971.79
2018-06-03T01:58:48.720Z,971.73
2018-06-03T01:59:48.747Z,971.71
2018-06-03T02:00:48.824Z,971.71
2018-06-03T02:01:48.846Z,971.70
2018-06-03T02:02:48.896Z,971.68
2018-06-03T02:03:48.945Z,971.68
2018-06-03T02:04:48.994Z,971.68
2018-06-03T02:05:49.081Z,971.70
2018-06-03T02:06:49.095Z,971.70
2018-06-03T02:07:49.144Z,971.73
2018-06-03T02:08:49.196Z,971.71
2018-06-03T02:09:49.246Z,971.71
2018-06-03T02:10:49.318Z,971.68
2018-06-03T02:11:49.342Z,971.66
2018-06-03T02:12:49.392Z,971.65
2018-06-03T02:13:49.443Z,971.63
2018-06-03T02:14:49.516Z,971.62
2018-06-03T02:15:49.541Z,971.63
2018-06-03T02:16:49.618Z,971.63
2018-06-03T02:17:49.643Z,971.61
2018-06-03T02:18:49.691Z,971.59
2018-06-03T02:19:49.741Z,971.60
2018-06-03T02:20:49.791Z,971.63
2018-06-03T02:21:49.861Z,971.59
2018-06-03T02:22:49.890Z,971.57
2018-06-03T02:23:49.940Z,971.60
2018-06-03T02:24:50.021Z,971.58
2018-06-03T02:25:50.037Z,971.58
2018-06-03T02:26:50.089Z,971.56
2018-06-03T02:27:50.141Z,971.56
2018-06-03T02:28:50.188Z,971.56
2018-06-03T02:29:50.286Z,971.53
2018-06-03T02:30:50.288Z,971.55
2018-06-03T02:31:50.339Z,971.50
2018-06-03T02:32:50.384Z,971.57
2018-06-03T02:33:50.436Z,971.55
2018-06-03T02:34:50.507Z,971.55
2018-06-03T02:35:50.533Z,971.51
2018-06-03T02:36:50.583Z,971.50
2018-06-03T02:37:50.663Z,971.53
2018-06-03T02:38:50.681Z,971.52
2018-06-03T02:39:50.734Z,971.52
2018-06-03T02:40:50.782Z,971.53
2018-06-03T02:41:50.834Z,971.53
2018-06-03T02:42:50.911Z,971.51
2018-06-03T02:43:50.931Z,971.54
2018-06-03T02:44:50.979Z,971.55
2018-06-03T02:45:51.053Z,971.52
2018-06-03T02:46:51.081Z,971.55
2018-06-03T02:47:51.131Z,971.56
2018-06-03T02:48:51.177Z,971.55
2018-06-03T02:49:51.230Z,971.59
2018-06-03T02:50:51.309Z,971.57
2018-06-03T02:51:51.328Z,971.61
2018-06-03T02:52:51.374Z,971.61
2018-06-03T02:53:51.424Z,971.62
2018-06-03T02:54:51.475Z,971.61
2018-06-03T02:55:51.554Z,971.60
2018-06-03T02:56:51.572Z,971.59
2018-06-03T02:57:51.621Z,971.57
2018-06-03T02:58:51.673Z,971.61
2018-06-03T02:59:51.722Z,971.55
2018-06-03T03:00:51.793Z,971.59
2018-06-03T03:01:51.824Z,971.55
2018-06-03T03:02:51.873Z,971.55
2018-06-03T03:03:51.922Z,971.52
2018-06-03T03:04:52.001Z,971.52
2018-06-03T03:05:52.020Z,971.54
2018-06-03T03:06:52.091Z,971.48
2018-06-03T03:07:52.117Z,971.52
2018-06-03T03:08:52.168Z,971.55
2018-06-03T03:09:52.217Z,971.54
2018-06-03T03:10:52.267Z,971.57
2018-06-03T03:11:52.339Z,971.59
2018-06-03T03:12:52.363Z,971.55
2018-06-03T03:13:52.414Z,971.56
2018-06-03T03:14:52.465Z,971.61
2018-06-03T03:15:52.514Z,971.63
2018-06-03T03:16:52.587Z,971.61
2018-06-03T03:17:52.613Z,971.62
2018-06-03T03:18:52.673Z,971.59
2018-06-03T03:19:52.710Z,971.64
2018-06-03T03:20:52.767Z,971.62
2018-06-03T03:21:52.832Z,971.61
2018-06-03T03:22:52.858Z,971.61
2018-06-03T03:23:52.906Z,971.67
2018-06-03T03:24:52.963Z,971.61
2018-06-03T03:25:53.036Z,971.66
2018-06-03T03:26:53.064Z,971.71
2018-06-03T03:27:53.107Z,971.70
2018-06-03T03:28:53.152Z,971.69
2018-06-03T03:29:53.664Z,971.71
2018-06-03T03:30:53.278Z,971.70
2018-06-03T03:31:53.303Z,971.65
2018-06-03T03:33:04.705Z,971.63
2018-06-03T03:33:53.401Z,971.66
2018-06-03T03:34:53.451Z,971.70
2018-06-03T03:35:53.530Z,971.68
2018-06-03T03:36:53.547Z,971.67
2018-06-03T03:37:53.596Z,971.68
2018-06-03T03:38:53.651Z,971.67
2018-06-03T03:39:53.694Z,971.67
2018-06-03T03:40:53.772Z,971.66
2018-06-03T03:41:53.793Z,971.69
2018-06-03T03:42:53.848Z,971.70
2018-06-03T03:43:53.916Z,971.68
2018-06-03T03:44:53.948Z,971.72
2018-06-03T03:45:53.990Z,971.72
2018-06-03T03:46:54.048Z,971.71
2018-06-03T03:47:54.093Z,971.71
2018-06-03T03:48:54.161Z,971.72
2018-06-03T03:49:54.187Z,971.74
2018-06-03T03:50:54.236Z,971.77
2018-06-03T03:51:54.294Z,971.76
2018-06-03T03:52:54.359Z,971.78
2018-06-03T03:53:54.388Z,971.80
2018-06-03T03:54:54.440Z,971.78
2018-06-03T03:55:54.485Z,971.81
2018-06-03T03:56:54.540Z,971.73
2018-06-03T03:57:54.616Z,971.72
2018-06-03T03:58:54.632Z,971.74
2018-06-03T03:59:54.683Z,971.76
2018-06-03T04:00:54.732Z,971.73
2018-06-03T04:01:54.798Z,971.73
2018-06-03T04:02:54.884Z,971.71
2018-06-03T04:03:54.881Z,971.72
2018-06-03T04:04:54.929Z,971.68
2018-06-03T04:05:54.978Z,971.73
2018-06-03T04:06:55.025Z,971.70
2018-06-03T04:07:55.537Z,971.70
2018-06-03T04:08:55.124Z,971.67
2018-06-03T04:09:55.172Z,971.68
2018-06-03T04:10:55.225Z,971.68
2018-06-03T04:11:55.272Z,971.64
2018-06-03T04:12:55.355Z,971.64
2018-06-03T04:13:55.373Z,971.65
2018-06-03T04:14:55.421Z,971.66
2018-06-03T04:15:55.471Z,971.70
2018-06-03T04:16:55.519Z,971.68
2018-06-03T04:17:55.606Z,971.70
2018-06-03T04:18:55.622Z,971.69
2018-06-03T04:19:55.669Z,971.70
2018-06-03T04:20:55.723Z,971.72
2018-06-03T04:21:55.772Z,971.74
2018-06-03T04:22:55.851Z,971.71
2018-06-03T04:23:55.864Z,971.71
2018-06-03T04:24:55.914Z,971.75
2018-06-03T04:25:55.966Z,971.76
2018-06-03T04:26:56.013Z,971.74
2018-06-03T04:27:56.095Z,971.69
2018-06-03T04:28:56.112Z,971.72
2018-06-03T04:29:56.162Z,971.69
2018-06-03T04:30:56.209Z,971.68
2018-06-03T04:31:56.286Z,971.73
2018-06-03T04:32:56.346Z,971.69
2018-06-03T04:33:56.358Z,971.68
2018-06-03T04:34:56.408Z,971.68
2018-06-03T04:35:56.460Z,971.69
2018-06-03T04:36:56.506Z,971.70
2018-06-03T04:37:56.587Z,971.69
2018-06-03T04:38:56.606Z,971.72
2018-06-03T04:39:56.661Z,971.70
2018-06-03T04:40:56.703Z,971.72
2018-06-03T04:41:56.753Z,971.77
2018-06-03T04:42:56.837Z,971.74
2018-06-03T04:43:56.861Z,971.76
2018-06-03T04:44:56.901Z,971.77
2018-06-03T04:45:56.953Z,971.79
2018-06-03T04:46:57.001Z,971.77
2018-06-03T04:47:57.093Z,971.81
2018-06-03T04:48:57.100Z,971.81
2018-06-03T04:49:57.150Z,971.79
2018-06-03T04:50:57.207Z,971.83
2018-06-03T04:51:57.252Z,971.85
2018-06-03T04:52:57.324Z,971.87
2018-06-03T04:53:57.348Z,971.88
2018-06-03T04:54:57.415Z,971.91
2018-06-03T04:55:57.448Z,971.90
2018-06-03T04:56:57.497Z,971.89
2018-06-03T04:57:57.573Z,971.90
2018-06-03T04:58:57.624Z,971.89
2018-06-03T04:59:57.646Z,971.84
2018-06-03T05:00:57.697Z,971.83
2018-06-03T05:01:57.744Z,971.83
2018-06-03T05:02:57.796Z,971.82
2018-06-03T05:03:57.877Z,971.77
2018-06-03T05:04:57.895Z,971.78
2018-06-03T05:05:57.943Z,971.81
2018-06-03T05:06:57.996Z,971.79
2018-06-03T05:07:58.045Z,971.83
2018-06-03T05:08:58.135Z,971.78
2018-06-03T05:09:58.146Z,971.76
2018-06-03T05:10:58.193Z,971.77
2018-06-03T05:11:58.243Z,971.76
2018-06-03T05:12:58.294Z,971.76
2018-06-03T05:13:58.368Z,971.76
2018-06-03T05:14:58.415Z,971.77
2018-06-03T05:15:58.441Z,971.79
2018-06-03T05:16:58.491Z,971.79
2018-06-03T05:17:58.540Z,971.82
2018-06-03T05:18:58.592Z,971.81
2018-06-03T05:19:58.683Z,971.79
2018-06-03T05:20:58.689Z,971.79
2018-06-03T05:21:58.743Z,971.80
2018-06-03T05:22:58.799Z,971.79
2018-06-03T05:23:58.843Z,971.81
2018-06-03T05:24:59.052Z,971.83
2018-06-03T05:25:58.939Z,971.85
2018-06-03T05:26:58.989Z,971.85
2018-06-03T05:27:59.040Z,971.86
2018-06-03T05:28:59.100Z,971.88
2018-06-03T05:29:59.166Z,971.87
2018-06-03T05:30:59.214Z,971.88
2018-06-03T05:31:59.247Z,971.87
2018-06-03T05:32:59.292Z,971.91
2018-06-03T05:33:59.341Z,971.87
2018-06-03T05:34:59.391Z,971.87
2018-06-03T05:35:59.463Z,971.86
2018-06-03T05:36:59.497Z,971.93
2018-06-03T05:37:59.543Z,971.86
2018-06-03T05:38:59.590Z,971.92
2018-06-03T05:39:59.640Z,971.91
2018-06-03T05:40:59.718Z,971.89
2018-06-03T05:41:59.743Z,971.95
2018-06-03T05:42:59.795Z,971.95
2018-06-03T05:43:59.839Z,971.91
2018-06-03T05:44:59.892Z,971.93
2018-06-03T05:45:59.963Z,971.92
2018-06-03T05:46:59.993Z,971.95
2018-06-03T05:48:00.039Z,971.97
2018-06-03T05:49:00.093Z,972.00
2018-06-03T05:50:00.140Z,971.99
2018-06-03T05:51:00.224Z,971.99
2018-06-03T05:52:00.241Z,972.01
2018-06-03T05:53:00.296Z,972.03
2018-06-03T05:54:00.341Z,972.06
2018-06-03T05:55:00.395Z,972.02
2018-06-03T05:56:00.468Z,971.97
2018-06-03T05:57:00.493Z,971.99
2018-06-03T05:58:00.578Z,971.95
2018-06-03T05:59:00.593Z,971.96
2018-06-03T06:00:00.645Z,971.97
2018-06-03T06:01:00.692Z,971.95
2018-06-03T06:02:00.747Z,971.94
2018-06-03T06:03:00.817Z,971.92
2018-06-03T06:04:00.845Z,971.97
2018-06-03T06:05:00.895Z,971.98
2018-06-03T06:06:00.953Z,971.98
2018-06-03T06:07:01.021Z,972.00
2018-06-03T06:08:01.045Z,972.02
2018-06-03T06:09:01.169Z,972.03
2018-06-03T06:10:01.149Z,972.01
2018-06-03T06:11:01.198Z,972.02
2018-06-03T06:12:01.269Z,972.06
2018-06-03T06:13:01.297Z,972.04
2018-06-03T06:14:01.348Z,972.08
2018-06-03T06:15:01.401Z,972.09
2018-06-03T06:16:01.450Z,972.10
2018-06-03T06:17:01.530Z,972.07
2018-06-03T06:18:01.549Z,972.12
2018-06-03T06:19:01.600Z,972.10
2018-06-03T06:20:01.653Z,972.11
2018-06-03T06:21:01.702Z,972.10
2018-06-03T06:22:01.776Z,972.10
2018-06-03T06:23:01.803Z,972.11
2018-06-03T06:24:01.878Z,972.09
2018-06-03T06:25:01.904Z,972.06
2018-06-03T06:26:01.957Z,972.04
2018-06-03T06:27:02.020Z,972.08
2018-06-03T06:28:02.056Z,972.05
2018-06-03T06:29:02.132Z,972.01
2018-06-03T06:30:02.155Z,972.02
2018-06-03T06:31:02.206Z,972.03
2018-06-03T06:32:02.258Z,972.02
2018-06-03T06:33:02.335Z,972.05
2018-06-03T06:34:02.359Z,972.07
2018-06-03T06:35:02.410Z,972.06
2018-06-03T06:36:02.467Z,972.04
2018-06-03T06:37:02.512Z,972.08
2018-06-03T06:38:02.593Z,972.04
2018-06-03T06:39:02.613Z,972.04
2018-06-03T06:40:02.665Z,972.09
2018-06-03T06:41:02.715Z,972.07
2018-06-03T06:42:02.765Z,972.09
2018-06-03T06:43:02.844Z,972.11
2018-06-03T06:44:02.873Z,972.11
2018-06-03T06:45:02.948Z,972.13
2018-06-03T06:46:02.973Z,972.11
2018-06-03T06:47:03.026Z,972.08
2018-06-03T06:48:03.078Z,972.10
2018-06-03T06:49:03.127Z,972.08
2018-06-03T06:50:03.219Z,972.10
2018-06-03T06:51:03.229Z,972.13
2018-06-03T06:52:03.284Z,972.13
2018-06-03T06:53:03.336Z,972.15
2018-06-03T06:54:03.386Z,972.17
2018-06-03T06:55:03.473Z,972.17
2018-06-03T06:56:03.492Z,972.20
2018-06-03T06:57:03.545Z,972.19
2018-06-03T06:58:03.595Z,972.17
2018-06-03T06:59:03.647Z,972.21
2018-06-03T07:00:03.743Z,972.18
2018-06-03T07:01:03.752Z,972.22
2018-06-03T07:02:03.804Z,972.26
2018-06-03T07:03:03.860Z,972.26
2018-06-03T07:04:03.911Z,972.24
2018-06-03T07:05:03.995Z,972.26
2018-06-03T07:06:04.020Z,972.25
2018-06-03T07:07:04.071Z,972.24
2018-06-03T07:08:04.129Z,972.25
2018-06-03T07:09:04.177Z,972.27
2018-06-03T07:10:04.255Z,972.27
2018-06-03T07:11:04.315Z,972.24
2018-06-03T07:12:04.342Z,972.21
2018-06-03T07:13:04.436Z,972.20
2018-06-03T07:14:04.445Z,972.21
2018-06-03T07:15:04.503Z,972.20
2018-06-03T07:16:04.577Z,972.21
2018-06-03T07:17:04.607Z,972.21
2018-06-03T07:18:04.661Z,972.20
2018-06-03T07:19:04.715Z,972.19
2018-06-03T07:20:04.771Z,972.17
2018-06-03T07:21:04.852Z,972.13
2018-06-03T07:22:04.884Z,972.12
2018-06-03T07:23:04.930Z,972.08
2018-06-03T07:24:04.984Z,972.07
2018-06-03T07:25:05.039Z,972.07
2018-06-03T07:26:05.125Z,972.06
2018-06-03T07:27:05.149Z,972.05
2018-06-03T07:28:05.205Z,972.07
2018-06-03T07:29:05.256Z,972.02
2018-06-03T07:30:05.313Z,972.04
2018-06-03T07:31:05.401Z,972.04
2018-06-03T07:32:05.442Z,972.03
2018-06-03T07:33:05.483Z,972.06
2018-06-03T07:34:05.532Z,972.03
2018-06-03T07:35:05.584Z,972.01
2018-06-03T07:36:05.663Z,972.02
2018-06-03T07:37:05.726Z,972.01
2018-06-03T07:38:05.752Z,972.02
2018-06-03T07:39:05.809Z,972.04
2018-06-03T07:40:05.859Z,972.01
2018-06-03T07:41:05.915Z,972.02
2018-06-03T07:42:06.009Z,972.04
2018-06-03T07:43:06.030Z,972.02
2018-06-03T07:44:06.083Z,972.03
2018-06-03T07:45:06.139Z,972.03
2018-06-03T07:46:06.191Z,972.00
2018-06-03T07:47:06.288Z,972.00
2018-06-03T07:48:06.307Z,971.96
2018-06-03T07:49:06.356Z,971.96
2018-06-03T07:50:06.413Z,971.98
2018-06-03T07:51:06.472Z,971.97
2018-06-03T07:52:06.565Z,971.98
2018-06-03T07:53:06.577Z,971.94
2018-06-03T07:54:06.633Z,971.92
2018-06-03T07:55:06.691Z,971.93
2018-06-03T07:56:06.743Z,971.96
2018-06-03T07:57:06.823Z,971.95
2018-06-03T07:58:06.880Z,971.96
2018-06-03T07:59:06.905Z,971.94
2018-06-03T08:00:06.962Z,971.90
2018-06-03T08:01:07.012Z,971.96
2018-06-03T08:02:07.072Z,971.98
2018-06-03T08:03:07.145Z,971.96
2018-06-03T08:04:07.177Z,971.97
2018-06-03T08:05:07.228Z,971.95
2018-06-03T08:06:07.281Z,971.96
2018-06-03T08:07:07.337Z,971.97
2018-06-03T08:08:07.422Z,971.95
2018-06-03T08:09:07.444Z,971.94
2018-06-03T08:10:07.501Z,971.97
2018-06-03T08:11:07.559Z,971.96
2018-06-03T08:12:07.608Z,971.96
2018-06-03T08:13:07.695Z,971.98
2018-06-03T08:14:07.717Z,971.93
2018-06-03T08:15:07.772Z,971.94
2018-06-03T08:16:07.824Z,971.91
2018-06-03T08:17:07.879Z,971.91
2018-06-03T08:18:07.982Z,971.92
2018-06-03T08:19:07.988Z,971.89
2018-06-03T08:20:08.042Z,971.86
2018-06-03T08:21:08.096Z,971.89
2018-06-03T08:22:08.152Z,971.87
2018-06-03T08:23:08.232Z,971.87
2018-06-03T08:24:08.286Z,971.86
2018-06-03T08:25:08.324Z,971.87
2018-06-03T08:26:08.376Z,971.89
2018-06-03T08:27:08.427Z,971.86
2018-06-03T08:28:08.483Z,971.85
2018-06-03T08:29:08.557Z,971.90
2018-06-03T08:30:08.589Z,971.87
2018-06-03T08:31:08.647Z,971.86
2018-06-03T08:32:08.700Z,971.86
2018-06-03T08:33:08.753Z,971.83
2018-06-03T08:34:08.835Z,971.80
2018-06-03T08:35:08.866Z,971.79
2018-06-03T08:36:08.919Z,971.80
2018-06-03T08:37:08.975Z,971.80
2018-06-03T08:38:09.031Z,971.80
2018-06-03T08:39:09.129Z,971.75
2018-06-03T08:40:09.140Z,971.81
2018-06-03T08:41:09.197Z,971.73
2018-06-03T08:42:09.250Z,971.76
2018-06-03T08:43:09.302Z,971.71
2018-06-03T08:44:09.415Z,971.71
2018-06-03T08:45:09.440Z,971.71
2018-06-03T08:46:09.469Z,971.68
2018-06-03T08:47:09.522Z,971.73
2018-06-03T08:48:09.581Z,971.72
2018-06-03T08:49:09.655Z,971.72
2018-06-03T08:50:09.715Z,971.71
2018-06-03T08:51:09.745Z,971.70
2018-06-03T08:52:09.815Z,971.70
2018-06-03T08:53:09.858Z,971.71
2018-06-03T08:54:09.914Z,971.69
2018-06-03T08:55:10.002Z,971.73
2018-06-03T08:56:10.026Z,971.74
2018-06-03T08:57:10.085Z,971.68
2018-06-03T08:58:10.138Z,971.70
2018-06-03T08:59:10.188Z,971.72
2018-06-03T09:00:10.286Z,971.65
2018-06-03T09:01:10.300Z,971.70
2018-06-03T09:02:10.358Z,971.66
2018-06-03T09:03:10.412Z,971.68
2018-06-03T09:04:10.464Z,971.63
2018-06-03T09:05:10.548Z,971.64
2018-06-03T09:06:10.600Z,971.60
2018-06-03T09:07:10.630Z,971.62
2018-06-03T09:08:10.689Z,971.61
2018-06-03T09:09:10.743Z,971.63
2018-06-03T09:10:10.800Z,971.58
2018-06-03T09:11:10.880Z,971.61
2018-06-03T09:12:10.912Z,971.60
2018-06-03T09:13:10.968Z,971.57
2018-06-03T09:14:11.019Z,971.58
2018-06-03T09:15:11.083Z,971.55
2018-06-03T09:16:11.157Z,971.56
2018-06-03T09:17:11.189Z,971.59
2018-06-03T09:18:11.240Z,971.59
2018-06-03T09:19:11.303Z,971.56
2018-06-03T09:20:11.353Z,971.53
2018-06-03T09:21:11.457Z,971.54
2018-06-03T09:22:11.464Z,971.50
2018-06-03T09:23:11.523Z,971.49
2018-06-03T09:24:11.580Z,971.50
2018-06-03T09:25:11.666Z,971.44
2018-06-03T09:26:11.721Z,971.45
2018-06-03T09:27:11.741Z,971.43
2018-06-03T09:28:11.807Z,971.45
2018-06-03T09:29:11.854Z,971.41
2018-06-03T09:30:11.914Z,971.44
2018-06-03T09:31:11.993Z,971.46
2018-06-03T09:32:12.057Z,971.47
2018-06-03T09:33:12.074Z,971.38
2018-06-03T09:34:12.133Z,971.43
2018-06-03T09:35:12.186Z,971.40
2018-06-03T09:36:12.246Z,971.43
2018-06-03T09:37:12.334Z,971.37
2018-06-03T09:38:12.351Z,971.44
2018-06-03T09:39:12.409Z,971.45
2018-06-03T09:40:12.470Z,971.43
2018-06-03T09:41:12.521Z,971.48
2018-06-03T09:42:12.607Z,971.44
2018-06-03T09:43:12.631Z,971.49
2018-06-03T09:44:12.695Z,971.49
2018-06-03T09:45:13.615Z,971.45
2018-06-03T09:46:12.809Z,971.46
2018-06-03T09:47:12.885Z,971.48
2018-06-03T09:48:12.916Z,971.46
2018-06-03T09:49:12.965Z,971.49
2018-06-03T09:50:13.023Z,971.49
2018-06-03T09:51:13.079Z,971.50
2018-06-03T09:52:13.157Z,971.48
2018-06-03T09:53:13.277Z,971.49
2018-06-03T09:54:13.272Z,971.43
2018-06-03T09:55:13.304Z,971.47
2018-06-03T09:56:13.357Z,971.48
2018-06-03T09:57:13.439Z,971.45
2018-06-03T09:58:13.468Z,971.47
2018-06-03T09:59:13.526Z,971.49
2018-06-03T10:00:13.609Z,971.45
2018-06-03T10:01:13.637Z,971.48
2018-06-03T10:02:13.692Z,971.48
2018-06-03T10:03:13.748Z,971.49
2018-06-03T10:04:13.807Z,971.47
2018-06-03T10:05:13.885Z,971.45
2018-06-03T10:06:13.918Z,971.46
2018-06-03T10:07:13.976Z,971.48
2018-06-03T10:08:14.032Z,971.48
2018-06-03T10:09:14.089Z,971.40
2018-06-03T10:10:14.241Z,971.41
2018-06-03T10:11:14.228Z,971.33
2018-06-03T10:12:14.255Z,971.29
2018-06-03T10:13:14.324Z,971.28
2018-06-03T10:14:14.369Z,971.28
2018-06-03T10:15:14.463Z,971.27
2018-06-03T10:16:14.550Z,971.27
2018-06-03T10:17:14.540Z,971.26
2018-06-03T10:18:14.596Z,971.27
2018-06-03T10:19:14.651Z,971.30
2018-06-03T10:20:14.739Z,971.27
2018-06-03T10:21:14.803Z,971.26
2018-06-03T10:22:14.850Z,971.30
2018-06-03T10:23:14.886Z,971.30
2018-06-03T10:24:14.940Z,971.30
2018-06-03T10:25:14.989Z,971.31
2018-06-03T10:26:15.072Z,971.26
2018-06-03T10:27:15.104Z,971.28
2018-06-03T10:28:15.168Z,971.29
2018-06-03T10:29:15.218Z,971.32
2018-06-03T10:30:15.275Z,971.28
2018-06-03T10:31:15.365Z,971.28
2018-06-03T10:32:15.388Z,971.27
2018-06-03T10:33:15.446Z,971.26
2018-06-03T10:34:15.505Z,971.25
2018-06-03T10:35:15.560Z,971.22
2018-06-03T10:36:15.662Z,971.19
2018-06-03T10:37:15.677Z,971.20
2018-06-03T10:38:15.738Z,971.20
2018-06-03T10:39:15.791Z,971.22
2018-06-03T10:40:15.852Z,971.16
2018-06-03T10:41:15.938Z,971.15
2018-06-03T10:42:15.964Z,971.13
2018-06-03T10:43:16.024Z,971.13
2018-06-03T10:44:16.082Z,971.16
2018-06-03T10:45:16.141Z,971.13
2018-06-03T10:46:16.221Z,971.15
2018-06-03T10:47:16.280Z,971.17
2018-06-03T10:48:16.312Z,971.19
2018-06-03T10:49:16.373Z,971.14
2018-06-03T10:50:16.431Z,971.17
2018-06-03T10:51:16.491Z,971.16
2018-06-03T10:52:16.571Z,971.13
2018-06-03T10:53:16.607Z,971.07
2018-06-03T10:54:16.670Z,971.12
2018-06-03T10:55:16.725Z,971.06
2018-06-03T10:56:16.783Z,971.07
2018-06-03T10:57:16.867Z,971.05
2018-06-03T10:58:16.900Z,971.05
2018-06-03T10:59:17.003Z,971.01
2018-06-03T11:00:17.014Z,971.00
2018-06-03T11:01:17.075Z,971.01
2018-06-03T11:02:17.130Z,970.96
2018-06-03T11:03:17.190Z,970.94
2018-06-03T11:04:17.284Z,970.90
2018-06-03T11:05:17.309Z,970.92
2018-06-03T11:06:17.365Z,970.87
2018-06-03T11:07:17.424Z,970.85
2018-06-03T11:08:17.486Z,970.89
2018-06-03T11:09:17.566Z,970.83
2018-06-03T11:10:17.597Z,970.85
2018-06-03T11:11:17.659Z,970.83
2018-06-03T11:12:17.715Z,970.83
2018-06-03T11:13:17.804Z,970.86
2018-06-03T11:14:17.834Z,970.82
2018-06-03T11:15:17.895Z,970.80
2018-06-03T11:16:17.948Z,970.79
2018-06-03T11:17:18.009Z,970.74
2018-06-03T11:18:18.090Z,970.71
2018-06-03T11:19:18.127Z,970.75
2018-06-03T11:20:18.181Z,970.66
2018-06-03T11:21:18.243Z,970.64
2018-06-03T11:22:18.300Z,970.66
2018-06-03T11:23:18.422Z,970.62
2018-06-03T11:24:18.432Z,970.60
2018-06-03T11:25:18.477Z,970.58
2018-06-03T11:26:18.534Z,970.56
2018-06-03T11:27:18.594Z,970.54
2018-06-03T11:28:18.674Z,970.52
2018-06-03T11:29:18.711Z,970.47
2018-06-03T11:30:18.768Z,970.46
2018-06-03T11:31:18.829Z,970.45
2018-06-03T11:32:18.940Z,970.42
2018-06-03T11:33:18.946Z,970.39
2018-06-03T11:34:19.009Z,970.37
2018-06-03T11:35:19.064Z,970.37
2018-06-03T11:36:19.121Z,970.38
2018-06-03T11:37:19.206Z,970.38
2018-06-03T11:38:19.240Z,970.35
2018-06-03T11:39:19.323Z,970.33
2018-06-03T11:40:19.362Z,970.29
2018-06-03T11:41:19.422Z,970.30
2018-06-03T11:42:19.480Z,970.29
2018-06-03T11:43:19.568Z,970.26
2018-06-03T11:44:19.602Z,970.29
2018-06-03T11:45:19.661Z,970.27
2018-06-03T11:46:19.751Z,970.25
2018-06-03T11:47:19.783Z,970.23
2018-06-03T11:48:19.876Z,970.21
2018-06-03T11:49:19.936Z,970.21
2018-06-03T11:50:19.966Z,970.22
2018-06-03T11:51:20.025Z,970.18
2018-06-03T11:52:20.085Z,970.19
2018-06-03T11:53:20.147Z,970.17
2018-06-03T11:54:20.231Z,970.14
2018-06-03T11:55:20.269Z,970.14
2018-06-03T11:56:20.333Z,970.20
2018-06-03T11:57:20.394Z,970.20
2018-06-03T11:58:20.449Z,970.18
2018-06-03T11:59:20.547Z,970.14
2018-06-03T12:00:20.576Z,970.15
2018-06-03T12:01:20.630Z,970.10
2018-06-03T12:02:20.694Z,970.13
2018-06-03T12:03:20.752Z,970.08
2018-06-03T12:04:20.854Z,970.08
2018-06-03T12:05:20.877Z,970.03
2018-06-03T12:06:20.935Z,970.07
2018-06-03T12:07:20.997Z,970.00
2018-06-03T12:08:21.688Z,970.03
2018-06-03T12:09:21.138Z,970.04
2018-06-03T12:10:21.210Z,970.02
2018-06-03T12:11:21.240Z,970.08
2018-06-03T12:12:21.301Z,970.06
2018-06-03T12:13:21.359Z,970.05
2018-06-03T12:14:21.450Z,970.08
2018-06-03T12:15:21.495Z,970.04
2018-06-03T12:16:21.542Z,970.03
2018-06-03T12:17:21.599Z,969.98
2018-06-03T12:18:21.661Z,970.00
2018-06-03T12:19:21.746Z,970.00
2018-06-03T12:20:21.803Z,970.02
2018-06-03T12:21:21.842Z,970.03
2018-06-03T12:22:21.901Z,970.03
2018-06-03T12:23:21.961Z,970.01
2018-06-03T12:24:22.018Z,969.98
2018-06-03T12:25:22.102Z,969.95
2018-06-03T12:26:22.192Z,969.97
2018-06-03T12:27:22.199Z,969.91
2018-06-03T12:28:22.301Z,969.90
2018-06-03T12:29:22.321Z,969.94